Portada
METAR-TAF:

METAR-TAF

Aeropuertos :

Aeropuerto Internacional de Indianápolis

Indianápolis, Indiana, Estados Unidos

latitud: 39-43-30N, longitud: 086-16-55W, altitud: 243 m

Observación

El informe se hizo hace 44 minutos, a las 07:54 UTC
Viento 5 kt del norte-noreste
Temperatura 7°C
Humedad 70%
Presión 1029 hPa
Visibilidad: 16.1 km
Cielo despejado

METAR: KIND 130754Z 03005KT 10SM CLR 07/02 A3038 RMK AO2 SLP288 T00720017

Hora: 04:38 (08:38 UTC)

Pronóstico

El informe se hizo hace 3 horas y 18 minutos, a las 05:20 UTC
Pronóstico válido del 13 a las 06 UTC al 14 a las 12 UTC
Viento 5 kt del norte-noreste
Visibilidad: 10 km
Cielo despejado
A partir de las 13 a las 1600 UTC
Viento 7 kt del noreste
Visibilidad: 10 km
Nubes dispersas a una altura de 6000 ft

TAF: KIND 130520Z 1306/1412 03005KT P6SM SKC FM131600 04007KT P6SM SCT060

Observaciones y pronósticos meteorológicos de más de 4000 aeropuertos (mensajes METAR y TAF).

Los puntos amarillos y rojos representan las estaciones disponibles.

Ponga el ratón en el punto deseado para ver el nombre de la estación.

Haga clic para ver las observaciones y los pronósticos meteorológicos.

Para cambiar el mapa : haga clic en los botones verdes con una cruz de color negro para hacer un zoom, en el botón verde con un guión para alejar o en las flechas verdes para mapas adyacentes.


METAR-TAF: